Time;durP1;ratioP1;P1;durP2;ratioP2;P2;SDS_P1;SDS_P2;PMS_P1;PMS_P2;Temp;Humidity;BMP_temperature;BMP_pressure;BME280_temperature;BME280_humidity;BME280_pressure;Samples;Min_cycle;Max_cycle;Signal;HPM_P1;HPM_P2
2023/05/03 00:00:59;;;;;;;;;;;;;;;18.28;64.68;100173.59;4393504;32;33290;-83
2023/05/03 00:03:27;;;;;;;;;;;;;;;18.47;63.33;100164.25;4402402;32;33437;-83
2023/05/03 00:05:55;;;;;;;;;;;;;;;18.17;64.70;100171.66;4400273;32;34329;-83
2023/05/03 00:08:23;;;;;;;;;;;;;;;18.24;64.73;100166.75;4402481;32;33906;-83
2023/05/03 00:10:51;;;;;;;;;;;;;;;18.32;64.23;100179.56;4414192;32;33116;-83
2023/05/03 00:13:18;;;;;;;;;;;;;;;18.53;63.23;100170.03;4403685;32;33973;-84
2023/05/03 00:15:46;;;;;;;;;;;;;;;18.29;63.95;100164.59;4386670;32;33671;-84
2023/05/03 00:18:14;;;;;;;;;;;;;;;18.29;63.97;100169.94;4376399;32;32672;-84
2023/05/03 00:20:42;;;;;;;;;;;;;;;18.49;63.30;100168.53;4402408;32;33337;-85
2023/05/03 00:23:10;;;;;;;;;;;;;;;18.53;63.05;100172.72;4402262;32;33875;-84
2023/05/03 00:25:38;;;;;;;;;;;;;;;18.47;63.32;100167.81;4402733;32;34314;-85
2023/05/03 00:28:09;;;;;;;;;;;;;;;18.38;63.55;100163.97;4392322;32;33592;-85
2023/05/03 00:30:37;;;;;;;;;;;;;;;18.31;63.79;100173.34;4402947;32;34401;-84
2023/05/03 00:33:04;;;;;;;;;;;;;;;18.12;65.07;100164.91;4400485;32;33914;-84
2023/05/03 00:35:32;;;;;;;;;;;;;;;18.17;65.09;100162.78;4405261;32;34493;-84
2023/05/03 00:38:00;;;;;;;;;;;;;;;18.07;65.18;100165.22;4390010;32;32092;-85
2023/05/03 00:40:27;;;;;;;;;;;;;;;18.24;64.85;100165.91;4386505;32;33177;-86
2023/05/03 00:42:55;;;;;;;;;;;;;;;18.34;64.26;100166.97;4387871;32;34814;-86
2023/05/03 00:45:23;;;;;;;;;;;;;;;18.24;64.92;100181.94;4399343;32;34971;-85
2023/05/03 00:47:53;;;;;;;;;;;;;;;18.59;63.17;100166.94;4387298;32;33477;-86
2023/05/03 00:50:22;;;;;;;;;;;;;;;18.43;63.59;100177.00;4394662;32;32859;-86
2023/05/03 00:52:49;;;;;;;;;;;;;;;18.35;64.13;100179.34;4402952;32;34155;-86
2023/05/03 00:55:18;;;;;;;;;;;;;;;18.25;64.53;100178.28;4394064;32;32720;-86
2023/05/03 00:57:46;;;;;;;;;;;;;;;18.21;65.01;100188.34;4389730;32;32236;-86
2023/05/03 01:00:14;;;;;;;;;;;;;;;18.15;65.51;100194.97;4395625;32;34672;-84
2023/05/03 01:02:42;;;;;;;;;;;;;;;18.14;65.57;100190.59;4376791;32;33010;-85
2023/05/03 01:05:10;;;;;;;;;;;;;;;18.24;65.32;100189.94;4394049;32;33231;-85
2023/05/03 01:07:45;;;;;;;;;;;;;;;18.34;64.21;100199.03;4412830;32;33922;-85
2023/05/03 01:10:32;;;;;;;;;;;;;;;18.33;64.48;100192.00;4413242;32;34144;-84
2023/05/03 01:13:09;;;;;;;;;;;;;;;18.49;63.56;100192.59;4401389;32;34787;-84
2023/05/03 01:15:40;;;;;;;;;;;;;;;18.30;64.38;100201.06;4408291;32;33159;-84
2023/05/03 01:18:32;;;;;;;;;;;;;;;18.00;65.81;100198.69;4404230;32;31675;-84
2023/05/03 01:21:00;;;;;;;;;;;;;;;18.19;65.02;100205.44;4387875;32;33920;-84
2023/05/03 01:23:31;;;;;;;;;;;;;;;18.11;65.55;100204.16;4386444;32;33817;-84
2023/05/03 01:25:59;;;;;;;;;;;;;;;18.16;65.13;100195.81;4401659;32;35168;-84
2023/05/03 01:28:29;;;;;;;;;;;;;;;18.05;65.44;100201.91;4399366;32;33413;-83
2023/05/03 01:30:57;;;;;;;;;;;;;;;18.22;64.89;100203.41;4386109;32;33246;-84
2023/05/03 01:33:39;;;;;;;;;;;;;;;18.16;65.35;100202.00;4387428;32;34215;-84
2023/05/03 01:36:11;;;;;;;;;;;;;;;18.12;65.14;100195.16;4405796;32;35108;-84
2023/05/03 01:38:38;;;;;;;;;;;;;;;18.21;65.30;100192.81;4400845;32;33363;-84
2023/05/03 01:41:08;;;;;;;;;;;;;;;18.11;65.43;100190.78;4388419;32;34601;-85
2023/05/03 01:43:37;;;;;;;;;;;;;;;18.26;65.23;100188.00;4390839;32;32388;-85
2023/05/03 01:46:06;;;;;;;;;;;;;;;18.14;65.75;100190.59;4386449;32;34519;-86
2023/05/03 01:48:34;;;;;;;;;;;;;;;18.20;65.65;100191.97;4387795;32;32235;-86
2023/05/03 01:51:02;;;;;;;;;;;;;;;18.02;66.27;100190.56;4398877;32;33611;-88
2023/05/03 01:53:30;;;;;;;;;;;;;;;17.88;66.45;100194.16;4401079;32;33785;-88
2023/05/03 01:55:58;;;;;;;;;;;;;;;18.06;66.19;100186.72;4400828;32;34508;-88
2023/05/03 01:58:26;;;;;;;;;;;;;;;18.15;65.92;100178.94;4382914;32;32474;-89
2023/05/03 02:00:54;;;;;;;;;;;;;;;18.12;66.07;100178.28;4399555;32;33170;-86
2023/05/03 02:03:22;;;;;;;;;;;;;;;18.13;65.65;100183.50;4394982;32;32870;-86
2023/05/03 02:05:50;;;;;;;;;;;;;;;18.15;65.95;100181.59;4386135;32;33164;-86
2023/05/03 02:08:17;;;;;;;;;;;;;;;18.20;65.73;100175.94;4392945;32;32289;-86
2023/05/03 02:10:46;;;;;;;;;;;;;;;18.06;66.12;100174.22;4387410;32;33376;-84
2023/05/03 02:13:15;;;;;;;;;;;;;;;18.21;65.81;100171.44;4405699;32;35120;-85
2023/05/03 02:15:43;;;;;;;;;;;;;;;18.26;65.54;100174.66;4386046;32;33313;-84
2023/05/03 02:18:11;;;;;;;;;;;;;;;18.09;66.00;100171.34;4386275;32;32721;-84
2023/05/03 02:20:39;;;;;;;;;;;;;;;18.14;65.88;100171.88;4382743;32;32854;-85
2023/05/03 02:23:07;;;;;;;;;;;;;;;18.17;65.66;100168.12;4403504;32;33046;-84
2023/05/03 02:25:35;;;;;;;;;;;;;;;18.28;65.15;100167.41;4399236;32;33682;-85
2023/05/03 02:28:02;;;;;;;;;;;;;;;17.95;66.24;100168.75;4407280;32;33091;-84
2023/05/03 02:30:30;;;;;;;;;;;;;;;18.03;65.95;100169.06;4386914;32;34857;-85
2023/05/03 02:32:58;;;;;;;;;;;;;;;18.06;65.74;100163.53;4405974;32;33226;-85
2023/05/03 02:35:26;;;;;;;;;;;;;;;18.10;65.76;100154.34;4401112;32;34277;-84
2023/05/03 02:37:55;;;;;;;;;;;;;;;18.10;65.73;100154.34;4393349;32;33539;-85
2023/05/03 02:40:24;;;;;;;;;;;;;;;18.12;65.66;100157.75;4388369;32;34274;-85
2023/05/03 02:42:51;;;;;;;;;;;;;;;18.19;65.49;100160.00;4387922;32;32921;-85
2023/05/03 02:45:21;;;;;;;;;;;;;;;18.08;66.04;100156.25;4404121;32;33704;-85
2023/05/03 02:47:48;;;;;;;;;;;;;;;18.03;66.07;100150.38;4412755;32;34144;-85
2023/05/03 02:50:17;;;;;;;;;;;;;;;18.29;64.70;100153.06;4414646;32;34096;-85
2023/05/03 02:52:45;;;;;;;;;;;;;;;18.11;65.30;100149.84;4400545;32;33788;-85
2023/05/03 02:55:13;;;;;;;;;;;;;;;18.34;64.18;100148.25;4388040;32;34444;-87
2023/05/03 02:57:41;;;;;;;;;;;;;;;18.29;64.32;100150.38;4402107;32;33180;-86
2023/05/03 03:00:16;;;;;;;;;;;;;;;18.08;65.24;100150.03;4401230;32;34981;-86
2023/05/03 03:02:53;;;;;;;;;;;;;;;18.05;65.43;100155.63;4395347;32;32611;-86
2023/05/03 03:05:21;;;;;;;;;;;;;;;17.79;66.53;100149.37;4399238;32;34019;-86
2023/05/03 03:07:50;;;;;;;;;;;;;;;17.90;66.47;100146.84;4394534;32;32318;-86
2023/05/03 03:10:17;;;;;;;;;;;;;;;18.01;66.08;100149.63;4375443;32;34480;-85
2023/05/03 03:12:46;;;;;;;;;;;;;;;17.90;66.62;100150.38;4386972;32;32992;-85
2023/05/03 03:15:18;;;;;;;;;;;;;;;18.11;65.57;100145.34;4377017;32;33045;-86
2023/05/03 03:17:46;;;;;;;;;;;;;;;18.12;65.41;100147.06;4394229;32;34076;-86
2023/05/03 03:20:14;;;;;;;;;;;;;;;17.99;65.86;100150.69;4403927;32;32644;-86
2023/05/03 03:22:44;;;;;;;;;;;;;;;17.88;66.43;100148.75;4389210;32;33322;-86
2023/05/03 03:25:12;;;;;;;;;;;;;;;17.97;66.37;100153.47;4389096;32;33213;-86
2023/05/03 03:27:40;;;;;;;;;;;;;;;18.11;65.89;100145.34;4411906;32;33389;-86
2023/05/03 03:30:10;;;;;;;;;;;;;;;18.00;66.33;100155.94;4376732;32;33222;-86
2023/05/03 03:32:39;;;;;;;;;;;;;;;18.13;65.92;100148.75;4402600;32;34025;-85
2023/05/03 03:35:10;;;;;;;;;;;;;;;17.95;66.67;100166.09;4390993;32;33848;-85
2023/05/03 03:37:40;;;;;;;;;;;;;;;18.01;66.03;100154.12;4390353;32;33690;-85
2023/05/03 03:40:08;;;;;;;;;;;;;;;17.96;66.43;100157.09;4389385;32;34771;-84
2023/05/03 03:42:41;;;;;;;;;;;;;;;18.10;66.17;100151.66;4400498;32;33594;-85
2023/05/03 03:45:09;;;;;;;;;;;;;;;18.09;65.99;100151.78;4399615;32;32851;-86
2023/05/03 03:47:38;;;;;;;;;;;;;;;18.00;66.32;100158.63;4374427;32;33669;-85
2023/05/03 03:50:06;;;;;;;;;;;;;;;17.91;66.52;100156.56;4399168;32;32141;-86
2023/05/03 03:52:35;;;;;;;;;;;;;;;18.14;65.27;100160.34;4401027;32;33567;-85
2023/05/03 03:55:05;;;;;;;;;;;;;;;17.90;66.29;100168.22;4392096;32;34123;-85
2023/05/03 03:57:33;;;;;;;;;;;;;;;18.16;65.25;100161.06;4376784;32;32525;-86
2023/05/03 04:00:04;;;;;;;;;;;;;;;18.26;64.70;100172.81;4401707;32;33770;-86
2023/05/03 04:02:45;;;;;;;;;;;;;;;17.98;65.88;100163.19;4408698;32;34948;-86
2023/05/03 04:05:17;;;;;;;;;;;;;;;17.96;65.84;100178.47;4389060;32;33599;-85
2023/05/03 04:07:45;;;;;;;;;;;;;;;17.80;67.02;100183.13;4392189;32;33144;-85
2023/05/03 04:10:13;;;;;;;;;;;;;;;17.95;66.56;100184.78;4402576;32;33073;-84
2023/05/03 04:12:41;;;;;;;;;;;;;;;18.08;66.10;100188.31;4386440;32;34208;-83
2023/05/03 04:15:10;;;;;;;;;;;;;;;18.21;65.40;100182.13;4401552;32;33244;-83
2023/05/03 04:17:48;;;;;;;;;;;;;;;18.00;66.08;100185.34;4401320;32;34093;-83
2023/05/03 04:20:20;;;;;;;;;;;;;;;18.07;66.21;100186.59;4387031;32;34350;-83
2023/05/03 04:22:50;;;;;;;;;;;;;;;18.26;65.20;100196.03;4406712;32;32971;-83
2023/05/03 04:25:30;;;;;;;;;;;;;;;18.25;65.40;100199.69;4400709;32;33543;-83
2023/05/03 04:28:03;;;;;;;;;;;;;;;18.06;65.79;100198.25;4416040;32;33116;-84
2023/05/03 04:30:34;;;;;;;;;;;;;;;17.99;65.94;100194.28;4388944;32;33469;-83
2023/05/03 04:33:04;;;;;;;;;;;;;;;17.95;66.15;100202.63;4395536;32;32771;-84
2023/05/03 04:35:44;;;;;;;;;;;;;;;18.19;65.69;100216.16;4391060;32;34400;-84
2023/05/03 04:38:14;;;;;;;;;;;;;;;18.15;65.38;100204.78;4389982;32;32473;-84
2023/05/03 04:40:45;;;;;;;;;;;;;;;18.15;65.28;100216.34;4388508;32;32876;-84
2023/05/03 04:43:13;;;;;;;;;;;;;;;18.11;65.60;100213.97;4384472;32;33193;-84
2023/05/03 04:45:44;;;;;;;;;;;;;;;18.04;65.93;100216.22;4387338;32;33840;-84
2023/05/03 04:48:16;;;;;;;;;;;;;;;18.00;66.24;100217.41;4392519;32;33279;-84
2023/05/03 04:50:47;;;;;;;;;;;;;;;18.09;66.21;100215.91;4386339;32;34868;-86
2023/05/03 04:53:16;;;;;;;;;;;;;;;18.41;64.71;100216.34;4397396;32;34271;-84
2023/05/03 04:55:46;;;;;;;;;;;;;;;18.43;64.31;100219.78;4399909;32;33228;-84
2023/05/03 04:58:14;;;;;;;;;;;;;;;18.08;65.86;100225.72;4401202;32;34311;-83
2023/05/03 05:00:50;;;;;;;;;;;;;;;18.31;65.06;100234.00;4387102;32;32965;-84
2023/05/03 05:03:21;;;;;;;;;;;;;;;18.33;65.26;100234.75;4384558;32;32918;-86
2023/05/03 05:05:50;;;;;;;;;;;;;;;18.10;66.35;100234.50;4392108;32;33397;-86
2023/05/03 05:08:19;;;;;;;;;;;;;;;18.01;66.89;100240.47;4399203;32;33744;-86
2023/05/03 05:13:31;;;;;;;;;;;;;;;18.35;65.34;100236.34;4396792;32;32263;-85
2023/05/03 05:16:00;;;;;;;;;;;;;;;18.51;64.50;100238.81;4388622;32;35076;-89
2023/05/03 05:18:28;;;;;;;;;;;;;;;18.07;67.07;100240.06;4380412;32;32125;-89
2023/05/03 05:20:57;;;;;;;;;;;;;;;18.14;66.99;100236.03;4371058;32;33606;-89
2023/05/03 05:23:28;;;;;;;;;;;;;;;18.41;66.15;100229.72;4375941;32;33044;-88
2023/05/03 05:25:59;;;;;;;;;;;;;;;18.16;67.37;100239.44;4377560;32;32841;-89
2023/05/03 05:28:28;;;;;;;;;;;;;;;18.29;67.05;100235.94;4400887;32;34210;-89
2023/05/03 05:30:59;;;;;;;;;;;;;;;18.29;67.07;100238.59;4389687;32;33937;-87
2023/05/03 05:33:30;;;;;;;;;;;;;;;18.61;66.21;100244.37;4395941;32;35602;-96
2023/05/03 05:36:13;;;;;;;;;;;;;;;18.56;66.60;100246.50;4391188;32;34307;-95
2023/05/03 05:39:07;;;;;;;;;;;;;;;18.61;66.35;100245.25;4378034;32;31833;-95
2023/05/03 05:42:00;;;;;;;;;;;;;;;18.53;66.53;100246.75;4404209;32;34685;-95
2023/05/03 05:44:51;;;;;;;;;;;;;;;18.75;65.76;100251.47;4379025;32;33243;-93
2023/05/03 05:51:55;;;;;;;;;;;;;;;18.74;65.32;100249.75;4411363;32;35148;-95
2023/05/03 05:54:50;;;;;;;;;;;;;;;18.51;65.94;100260.19;4389886;32;34822;-95
2023/05/03 05:57:34;;;;;;;;;;;;;;;18.58;65.97;100261.50;4394502;32;33429;-94
2023/05/03 06:00:30;;;;;;;;;;;;;;;18.94;64.07;100259.88;4398829;32;34875;-94
2023/05/03 06:03:22;;;;;;;;;;;;;;;18.42;66.60;100266.22;4370360;32;32362;-93
2023/05/03 06:06:16;;;;;;;;;;;;;;;18.73;64.55;100259.59;4386032;32;32768;-93
2023/05/03 06:09:03;;;;;;;;;;;;;;;18.57;65.46;100275.84;4390297;32;32805;-94
2023/05/03 06:11:55;;;;;;;;;;;;;;;18.68;64.63;100272.41;4383083;32;33108;-94
2023/05/03 06:14:52;;;;;;;;;;;;;;;18.66;64.20;100287.72;4402750;32;34061;-94
2023/05/03 06:17:47;;;;;;;;;;;;;;;18.63;64.47;100290.59;4392974;32;34758;-94
2023/05/03 06:20:41;;;;;;;;;;;;;;;18.78;63.86;100289.56;4378526;32;34765;-94
2023/05/03 06:23:27;;;;;;;;;;;;;;;19.10;62.34;100287.28;4412905;32;33340;-95
2023/05/03 06:26:12;;;;;;;;;;;;;;;19.14;62.11;100283.44;4381919;32;32550;-94
2023/05/03 06:29:10;;;;;;;;;;;;;;;19.12;61.88;100288.03;4377998;32;34709;-95
2023/05/03 06:31:59;;;;;;;;;;;;;;;18.78;64.35;100299.41;4372907;32;35908;-93
2023/05/03 06:34:51;;;;;;;;;;;;;;;18.86;64.17;100299.75;4385419;32;33253;-94
2023/05/03 06:37:48;;;;;;;;;;;;;;;18.73;64.97;100306.91;4397556;32;34873;-95
2023/05/03 06:40:33;;;;;;;;;;;;;;;18.85;65.00;100314.09;4399540;32;32746;-94
2023/05/03 06:43:25;;;;;;;;;;;;;;;19.18;63.15;100311.69;4392002;32;33944;-94
2023/05/03 06:46:11;;;;;;;;;;;;;;;18.93;64.59;100322.41;4398852;32;32820;-94
2023/05/03 06:49:03;;;;;;;;;;;;;;;18.80;65.28;100313.53;4410943;32;31903;-94
2023/05/03 06:51:42;;;;;;;;;;;;;;;19.04;64.69;100321.69;4361652;32;28818;-94
2023/05/03 06:54:24;;;;;;;;;;;;;;;19.46;62.61;100312.38;4393947;32;33073;-96
2023/05/03 06:57:24;;;;;;;;;;;;;;;19.23;63.98;100302.44;4403786;32;35703;-95
2023/05/03 07:00:10;;;;;;;;;;;;;;;19.29;63.89;100310.94;4398745;32;33464;-96
2023/05/03 07:02:56;;;;;;;;;;;;;;;19.32;63.48;100310.72;4408444;32;32790;-95
2023/05/03 07:05:39;;;;;;;;;;;;;;;19.52;63.10;100311.94;4422022;32;32668;-95
2023/05/03 07:08:24;;;;;;;;;;;;;;;19.43;63.64;100310.78;4366660;32;32902;-95
2023/05/03 07:13:58;;;;;;;;;;;;;;;19.71;62.69;100313.31;4426536;32;20022;-93
2023/05/03 07:16:39;;;;;;;;;;;;;;;19.67;62.85;100315.34;4424421;32;33133;-94
2023/05/03 07:19:36;;;;;;;;;;;;;;;19.36;64.23;100316.69;4375437;32;33282;-95
2023/05/03 07:22:23;;;;;;;;;;;;;;;19.74;63.35;100305.03;4360008;32;32046;-95
2023/05/03 07:25:16;;;;;;;;;;;;;;;20.15;62.30;100304.63;4372084;32;32909;-94
2023/05/03 07:27:56;;;;;;;;;;;;;;;20.13;63.10;100301.19;4385044;32;32633;-94
2023/05/03 07:30:39;;;;;;;;;;;;;;;20.17;61.62;100308.88;4380957;32;33469;-94
2023/05/03 07:33:36;;;;;;;;;;;;;;;20.43;61.80;100303.38;4368533;32;34136;-95
2023/05/03 07:36:19;;;;;;;;;;;;;;;20.11;61.28;100306.69;4415334;32;32584;-93
2023/05/03 07:39:01;;;;;;;;;;;;;;;19.96;62.42;100310.50;4384464;32;33022;-93
2023/05/03 07:41:53;;;;;;;;;;;;;;;20.51;59.37;100306.38;4384393;32;32907;-94
2023/05/03 07:44:34;;;;;;;;;;;;;;;20.53;59.94;100309.78;4409372;32;33053;-94
2023/05/03 07:47:27;;;;;;;;;;;;;;;20.66;58.58;100307.87;4409608;32;34711;-94
2023/05/03 07:50:09;;;;;;;;;;;;;;;20.60;60.12;100300.28;4392470;32;33098;-95
2023/05/03 07:53:04;;;;;;;;;;;;;;;20.58;60.94;100301.37;4392922;32;35733;-93
2023/05/03 07:55:52;;;;;;;;;;;;;;;20.87;59.21;100307.16;4383508;32;33175;-93
2023/05/03 07:58:49;;;;;;;;;;;;;;;21.44;56.93;100307.06;4389917;32;35519;-93
2023/05/03 08:01:32;;;;;;;;;;;;;;;21.30;58.39;100312.66;4397920;32;33261;-95
2023/05/03 08:04:35;;;;;;;;;;;;;;;21.40;55.08;100312.78;4411680;32;20037;-93
2023/05/03 08:07:16;;;;;;;;;;;;;;;21.43;55.62;100321.47;4398405;32;33263;-93
2023/05/03 08:10:01;;;;;;;;;;;;;;;21.45;55.13;100315.97;4385683;32;32927;-91
2023/05/03 08:12:44;;;;;;;;;;;;;;;21.66;53.52;100319.59;4387743;32;33866;-91
2023/05/03 08:15:45;;;;;;;;;;;;;;;21.97;54.22;100319.75;4398031;32;32714;-90
2023/05/03 08:18:14;;;;;;;;;;;;;;;22.20;54.11;100316.03;4390634;32;32017;-92
2023/05/03 08:21:13;;;;;;;;;;;;;;;21.72;54.71;100321.78;4378544;32;34709;-93
2023/05/03 08:23:54;;;;;;;;;;;;;;;22.14;53.07;100319.25;4390886;32;34119;-92
2023/05/03 08:26:49;;;;;;;;;;;;;;;22.20;52.77;100316.03;4407204;32;33095;-89
2023/05/03 08:29:33;;;;;;;;;;;;;;;22.42;52.70;100319.63;4381817;32;34098;-90
2023/05/03 08:32:36;;;;;;;;;;;;;;;22.44;52.45;100323.00;4395898;32;33330;-92
2023/05/03 08:35:16;;;;;;;;;;;;;;;22.24;53.55;100320.19;4381413;32;32823;-91
2023/05/03 08:38:18;;;;;;;;;;;;;;;22.41;52.32;100315.22;4408025;32;32806;-92
2023/05/03 08:40:59;;;;;;;;;;;;;;;22.30;51.25;100315.25;4385898;32;31793;-91
2023/05/03 08:43:53;;;;;;;;;;;;;;;21.95;52.50;100316.34;4385777;32;32838;-93
2023/05/03 08:46:36;;;;;;;;;;;;;;;21.77;53.59;100323.25;4373311;32;33790;-92
2023/05/03 08:49:27;;;;;;;;;;;;;;;22.31;51.73;100327.72;4389114;32;32839;-90
2023/05/03 08:52:10;;;;;;;;;;;;;;;22.05;53.21;100319.97;4386015;32;32433;-91
2023/05/03 08:55:03;;;;;;;;;;;;;;;22.54;50.86;100325.78;4397733;32;32525;-91
2023/05/03 08:57:45;;;;;;;;;;;;;;;22.71;52.77;100320.66;4368687;32;33219;-94
2023/05/03 09:00:37;;;;;;;;;;;;;;;22.95;50.76;100323.09;4369000;32;33167;-93
2023/05/03 09:03:17;;;;;;;;;;;;;;;22.93;49.61;100322.41;4388661;32;33485;-93
2023/05/03 09:06:18;;;;;;;;;;;;;;;22.73;50.66;100326.75;4356765;32;32532;-92
2023/05/03 09:08:58;;;;;;;;;;;;;;;23.05;50.29;100316.91;4383883;32;33089;-92
2023/05/03 09:11:51;;;;;;;;;;;;;;;22.94;50.17;100317.84;4390473;32;32962;-85
2023/05/03 09:14:20;;;;;;;;;;;;;;;22.53;50.54;100327.63;4357306;32;31931;-89
2023/05/03 09:16:53;;;;;;;;;;;;;;;22.87;49.66;100324.72;4395156;32;33288;-89
2023/05/03 09:19:23;;;;;;;;;;;;;;;22.95;50.34;100322.25;4392660;32;33103;-89
2023/05/03 09:21:50;;;;;;;;;;;;;;;22.84;50.25;100322.31;4368290;32;33251;-89
2023/05/03 09:24:19;;;;;;;;;;;;;;;22.77;50.43;100327.34;4378652;32;31919;-89
2023/05/03 09:26:48;;;;;;;;;;;;;;;22.96;49.96;100330.19;4392740;32;33111;-89
2023/05/03 09:29:26;;;;;;;;;;;;;;;22.91;49.99;100321.66;4380393;32;33406;-89
2023/05/03 09:31:59;;;;;;;;;;;;;;;22.97;49.96;100325.66;4368180;32;33287;-89
2023/05/03 09:34:27;;;;;;;;;;;;;;;22.77;50.16;100319.28;4376451;32;32062;-89
2023/05/03 09:36:55;;;;;;;;;;;;;;;22.59;50.17;100324.41;4380720;32;33671;-89
2023/05/03 09:39:24;;;;;;;;;;;;;;;22.39;50.58;100333.31;4381215;32;34956;-90
2023/05/03 09:41:54;;;;;;;;;;;;;;;22.34;50.77;100327.47;4378635;32;33222;-89
2023/05/03 09:44:52;;;;;;;;;;;;;;;22.34;50.75;100324.78;4391731;32;33474;-89
2023/05/03 09:47:24;;;;;;;;;;;;;;;22.40;50.39;100321.56;4381098;32;34122;-89
2023/05/03 09:49:54;;;;;;;;;;;;;;;22.91;49.27;100313.56;4384540;32;33098;-85
2023/05/03 09:52:23;;;;;;;;;;;;;;;22.52;49.91;100323.22;4374148;32;33482;-85
2023/05/03 09:54:53;;;;;;;;;;;;;;;22.34;50.67;100325.63;4377625;32;33731;-85
2023/05/03 09:57:23;;;;;;;;;;;;;;;22.33;51.43;100325.78;4361838;32;33256;-85
2023/05/03 09:59:52;;;;;;;;;;;;;;;22.29;51.13;100318.94;4396238;32;34122;-85
2023/05/03 10:02:20;;;;;;;;;;;;;;;22.66;49.83;100322.91;4383187;32;33108;-85
2023/05/03 10:04:57;;;;;;;;;;;;;;;22.77;49.59;100313.03;4374627;32;33782;-85
2023/05/03 10:07:30;;;;;;;;;;;;;;;22.70;50.16;100308.19;4351746;32;33413;-85
2023/05/03 10:09:58;;;;;;;;;;;;;;;22.71;49.40;100309.88;4377015;32;33876;-85
2023/05/03 10:12:27;;;;;;;;;;;;;;;22.80;48.93;100307.41;4390303;32;33229;-85
2023/05/03 10:14:56;;;;;;;;;;;;;;;22.40;50.59;100310.81;4401911;32;33367;-85
2023/05/03 10:17:26;;;;;;;;;;;;;;;22.33;51.96;100315.00;4374417;32;33864;-85
2023/05/03 10:20:21;;;;;;;;;;;;;;;22.35;52.13;100311.19;4389439;32;34767;-85
2023/05/03 10:23:05;;;;;;;;;;;;;;;22.20;51.70;100310.66;4385515;32;33500;-85
2023/05/03 10:25:37;;;;;;;;;;;;;;;22.33;51.02;100320.41;4385104;32;32384;-85
2023/05/03 10:28:07;;;;;;;;;;;;;;;22.01;52.20;100315.84;4389469;32;34094;-86
2023/05/03 10:30:39;;;;;;;;;;;;;;;22.37;51.37;100319.16;4383458;32;35081;-85
2023/05/03 10:33:13;;;;;;;;;;;;;;;22.56;50.99;100303.16;4389717;32;33239;-86
2023/05/03 10:35:52;;;;;;;;;;;;;;;22.54;50.21;100306.94;4389766;32;33721;-85
2023/05/03 10:38:21;;;;;;;;;;;;;;;22.57;51.01;100302.16;4378201;32;34098;-84
2023/05/03 10:40:49;;;;;;;;;;;;;;;22.90;49.81;100297.56;4391290;32;34558;-91
2023/05/03 10:43:34;;;;;;;;;;;;;;;22.46;51.12;100300.38;4381868;32;33188;-90
2023/05/03 10:46:30;;;;;;;;;;;;;;;22.77;50.35;100297.72;4392991;32;32558;-90
2023/05/03 10:49:28;;;;;;;;;;;;;;;22.48;51.30;100297.56;4381241;32;33183;-90
2023/05/03 10:52:36;;;;;;;;;;;;;;;22.78;49.94;100293.19;4411217;32;34080;-91
2023/05/03 10:55:09;;;;;;;;;;;;;;;22.93;50.04;100287.38;4383084;32;33648;-90
2023/05/03 10:57:56;;;;;;;;;;;;;;;22.60;51.68;100284.87;4393758;32;32396;-90
2023/05/03 11:00:56;;;;;;;;;;;;;;;22.71;51.17;100282.97;4376092;32;33043;-91
2023/05/03 11:03:42;;;;;;;;;;;;;;;22.52;50.90;100293.63;4378032;32;32810;-90
2023/05/03 11:06:42;;;;;;;;;;;;;;;22.78;50.67;100291.34;4384227;32;35285;-90
2023/05/03 11:10:41;;;;;;;;;;;;;;;22.66;50.66;100290.59;4377339;32;35085;-90
2023/05/03 11:13:32;;;;;;;;;;;;;;;22.31;52.41;100295.44;4377470;32;33010;-90
2023/05/03 11:16:14;;;;;;;;;;;;;;;22.34;51.77;100298.72;4336176;32;32805;-90
2023/05/03 11:19:00;;;;;;;;;;;;;;;22.74;49.52;100293.50;4380905;32;33973;-90
2023/05/03 11:22:06;;;;;;;;;;;;;;;22.92;48.25;100295.56;4361446;32;32142;-90
2023/05/03 11:24:35;;;;;;;;;;;;;;;22.84;48.94;100298.06;4352025;32;32533;-90
2023/05/03 11:27:12;;;;;;;;;;;;;;;22.67;49.16;100292.28;4361562;32;34124;-89
2023/05/03 11:30:06;;;;;;;;;;;;;;;23.02;47.99;100291.09;4385398;32;33221;-90
2023/05/03 11:32:36;;;;;;;;;;;;;;;23.04;45.53;100286.44;4370417;32;32477;-90
2023/05/03 11:35:06;;;;;;;;;;;;;;;23.07;45.74;100294.22;4385525;32;34191;-90
2023/05/03 11:41:44;;;;;;;;;;;;;;;22.90;50.31;100293.03;4387273;32;34082;-89
2023/05/03 11:44:15;;;;;;;;;;;;;;;22.59;51.78;100291.25;4376231;32;32788;-89
2023/05/03 11:46:46;;;;;;;;;;;;;;;22.58;51.25;100293.09;4376900;32;33461;-90
2023/05/03 11:49:16;;;;;;;;;;;;;;;22.23;52.12;100298.78;4377889;32;33282;-88
2023/05/03 11:51:44;;;;;;;;;;;;;;;22.34;51.89;100300.56;4397609;32;33160;-88
2023/05/03 11:54:16;;;;;;;;;;;;;;;22.17;52.10;100300.19;4384442;32;34290;-88
2023/05/03 11:56:57;;;;;;;;;;;;;;;21.85;53.70;100294.75;4383082;32;34083;-88
2023/05/03 11:59:37;;;;;;;;;;;;;;;22.17;52.78;100293.91;4400903;32;33552;-88
2023/05/03 12:02:15;;;;;;;;;;;;;;;22.35;52.01;100299.56;4372405;32;33622;-88
2023/05/03 12:04:46;;;;;;;;;;;;;;;21.68;53.92;100300.66;4380667;32;33194;-89
2023/05/03 12:07:16;;;;;;;;;;;;;;;21.93;54.12;100291.41;4361046;32;33436;-88
2023/05/03 12:09:48;;;;;;;;;;;;;;;22.31;53.15;100295.44;4366557;32;33987;-88
2023/05/03 12:12:40;;;;;;;;;;;;;;;22.11;53.65;100297.09;4370158;32;33889;-88
2023/05/03 12:15:23;;;;;;;;;;;;;;;22.17;53.83;100292.09;4378786;32;33645;-89
2023/05/03 12:18:03;;;;;;;;;;;;;;;21.94;54.15;100293.16;4382126;32;33050;-89
2023/05/03 12:20:34;;;;;;;;;;;;;;;21.86;54.88;100296.47;4389926;32;34117;-88
2023/05/03 12:23:07;;;;;;;;;;;;;;;21.90;54.10;100287.16;4388008;32;34332;-89
2023/05/03 12:25:39;;;;;;;;;;;;;;;21.53;54.80;100292.03;4394586;32;33137;-89
2023/05/03 12:28:15;;;;;;;;;;;;;;;21.92;53.52;100289.72;4411169;32;33984;-88
2023/05/03 12:30:50;;;;;;;;;;;;;;;21.77;54.01;100283.78;4395644;32;33070;-88
2023/05/03 12:33:26;;;;;;;;;;;;;;;21.98;53.74;100282.00;4394969;32;33530;-89
2023/05/03 12:35:58;;;;;;;;;;;;;;;21.65;54.57;100276.75;4397433;32;32679;-88
2023/05/03 12:38:34;;;;;;;;;;;;;;;21.67;54.60;100281.00;4402443;32;33425;-87
2023/05/03 12:41:06;;;;;;;;;;;;;;;21.60;54.49;100279.81;4405538;32;33339;-88
2023/05/03 12:43:37;;;;;;;;;;;;;;;21.63;54.47;100279.53;4387384;32;33424;-88
2023/05/03 12:46:11;;;;;;;;;;;;;;;21.47;54.83;100284.47;4409786;32;34328;-88
2023/05/03 12:49:00;;;;;;;;;;;;;;;21.65;54.03;100279.44;4391314;32;32999;-88
2023/05/03 12:54:34;;;;;;;;;;;;;;;21.40;54.82;100273.34;4392892;32;33504;-88
2023/05/03 12:57:03;;;;;;;;;;;;;;;21.24;55.87;100272.88;4393803;32;33165;-88
2023/05/03 12:59:37;;;;;;;;;;;;;;;21.48;54.75;100264.69;4401941;32;33113;-88
2023/05/03 13:02:16;;;;;;;;;;;;;;;21.55;54.96;100273.94;4405406;32;33958;-88
2023/05/03 13:05:06;;;;;;;;;;;;;;;21.51;54.86;100275.19;4391014;32;33099;-87
2023/05/03 13:07:42;;;;;;;;;;;;;;;21.34;55.02;100267.63;4388545;32;32680;-87
2023/05/03 13:10:17;;;;;;;;;;;;;;;21.74;53.78;100262.53;4403933;32;33014;-87
2023/05/03 13:13:01;;;;;;;;;;;;;;;21.75;54.05;100266.94;4403131;32;35074;-87
2023/05/03 13:15:33;;;;;;;;;;;;;;;21.37;55.13;100262.88;4396930;32;33356;-88
2023/05/03 13:18:05;;;;;;;;;;;;;;;20.86;56.33;100258.00;4400980;32;32910;-87
2023/05/03 13:20:40;;;;;;;;;;;;;;;20.93;56.60;100263.72;4403810;32;33320;-87
2023/05/03 13:23:11;;;;;;;;;;;;;;;21.12;56.54;100258.56;4397031;32;34317;-88
2023/05/03 13:25:39;;;;;;;;;;;;;;;21.48;54.29;100262.84;4401358;32;34100;-87
2023/05/03 13:28:22;;;;;;;;;;;;;;;21.37;54.96;100259.34;4380068;32;31764;-88
2023/05/03 13:31:05;;;;;;;;;;;;;;;21.70;54.17;100256.56;4400932;32;33262;-87
2023/05/03 13:33:53;;;;;;;;;;;;;;;21.84;53.98;100251.84;4386568;32;33578;-87
2023/05/03 13:36:32;;;;;;;;;;;;;;;21.80;53.61;100253.97;4403144;32;33497;-88
2023/05/03 13:39:15;;;;;;;;;;;;;;;21.52;54.62;100247.34;4404431;32;33416;-88
2023/05/03 13:41:46;;;;;;;;;;;;;;;21.13;55.36;100254.09;4405449;32;32860;-88